sensor_id;sensor_type;location;lat;lon;timestamp;P1;durP1;ratioP1;P2;durP2;ratioP2
32501;SDS011;18952;52.516;13.460;2023-11-19T00:01:01;12.85;;;9.48;;
32501;SDS011;18952;52.516;13.460;2023-11-19T00:03:28;10.45;;;9.35;;
32501;SDS011;18952;52.516;13.460;2023-11-19T00:05:55;10.90;;;9.65;;
32501;SDS011;18952;52.516;13.460;2023-11-19T00:08:21;11.95;;;9.48;;
32501;SDS011;18952;52.516;13.460;2023-11-19T00:10:48;14.52;;;9.65;;
32501;SDS011;18952;52.516;13.460;2023-11-19T00:13:15;11.45;;;9.82;;
32501;SDS011;18952;52.516;13.460;2023-11-19T00:15:42;11.43;;;9.70;;
32501;SDS011;18952;52.516;13.460;2023-11-19T00:18:09;10.50;;;9.20;;
32501;SDS011;18952;52.516;13.460;2023-11-19T00:20:36;11.68;;;9.70;;
32501;SDS011;18952;52.516;13.460;2023-11-19T00:23:02;11.90;;;9.50;;
32501;SDS011;18952;52.516;13.460;2023-11-19T00:25:29;12.88;;;9.45;;
32501;SDS011;18952;52.516;13.460;2023-11-19T00:27:56;14.13;;;9.18;;
32501;SDS011;18952;52.516;13.460;2023-11-19T00:30:23;11.13;;;9.25;;
32501;SDS011;18952;52.516;13.460;2023-11-19T00:32:50;10.80;;;9.40;;
32501;SDS011;18952;52.516;13.460;2023-11-19T00:35:17;13.95;;;9.38;;
32501;SDS011;18952;52.516;13.460;2023-11-19T00:37:44;11.05;;;8.63;;
32501;SDS011;18952;52.516;13.460;2023-11-19T00:40:10;12.93;;;8.70;;
32501;SDS011;18952;52.516;13.460;2023-11-19T00:42:38;12.43;;;8.85;;
32501;SDS011;18952;52.516;13.460;2023-11-19T00:45:05;11.27;;;8.70;;
32501;SDS011;18952;52.516;13.460;2023-11-19T00:47:32;10.25;;;9.13;;
32501;SDS011;18952;52.516;13.460;2023-11-19T00:49:59;10.32;;;8.45;;
32501;SDS011;18952;52.516;13.460;2023-11-19T00:52:25;10.38;;;8.52;;
32501;SDS011;18952;52.516;13.460;2023-11-19T00:54:53;10.50;;;8.05;;
32501;SDS011;18952;52.516;13.460;2023-11-19T00:57:20;10.40;;;8.45;;
32501;SDS011;18952;52.516;13.460;2023-11-19T00:59:46;11.10;;;8.32;;
32501;SDS011;18952;52.516;13.460;2023-11-19T01:02:13;11.45;;;8.38;;
32501;SDS011;18952;52.516;13.460;2023-11-19T01:04:40;8.35;;;7.55;;
32501;SDS011;18952;52.516;13.460;2023-11-19T01:07:07;11.85;;;8.55;;
32501;SDS011;18952;52.516;13.460;2023-11-19T01:09:34;9.70;;;8.40;;
32501;SDS011;18952;52.516;13.460;2023-11-19T01:12:04;9.88;;;7.90;;
32501;SDS011;18952;52.516;13.460;2023-11-19T01:14:31;9.98;;;8.10;;
32501;SDS011;18952;52.516;13.460;2023-11-19T01:16:58;8.63;;;7.82;;
32501;SDS011;18952;52.516;13.460;2023-11-19T01:19:26;11.38;;;8.20;;
32501;SDS011;18952;52.516;13.460;2023-11-19T01:21:53;9.10;;;7.25;;
32501;SDS011;18952;52.516;13.460;2023-11-19T01:24:20;11.98;;;8.07;;
32501;SDS011;18952;52.516;13.460;2023-11-19T01:26:47;9.02;;;7.93;;
32501;SDS011;18952;52.516;13.460;2023-11-19T01:29:14;10.00;;;7.32;;
32501;SDS011;18952;52.516;13.460;2023-11-19T01:31:42;8.20;;;7.22;;
32501;SDS011;18952;52.516;13.460;2023-11-19T01:34:09;9.18;;;7.05;;
32501;SDS011;18952;52.516;13.460;2023-11-19T01:36:37;8.68;;;7.55;;
32501;SDS011;18952;52.516;13.460;2023-11-19T01:39:03;11.60;;;8.57;;
32501;SDS011;18952;52.516;13.460;2023-11-19T01:41:34;9.50;;;7.47;;
32501;SDS011;18952;52.516;13.460;2023-11-19T01:44:01;13.45;;;7.57;;
32501;SDS011;18952;52.516;13.460;2023-11-19T01:46:28;9.45;;;7.43;;
32501;SDS011;18952;52.516;13.460;2023-11-19T01:48:55;9.07;;;7.53;;
32501;SDS011;18952;52.516;13.460;2023-11-19T01:51:23;16.30;;;7.13;;
32501;SDS011;18952;52.516;13.460;2023-11-19T01:53:50;8.77;;;6.72;;
32501;SDS011;18952;52.516;13.460;2023-11-19T01:56:17;8.30;;;7.43;;
32501;SDS011;18952;52.516;13.460;2023-11-19T01:58:46;8.68;;;7.20;;
32501;SDS011;18952;52.516;13.460;2023-11-19T02:01:16;8.63;;;7.65;;
32501;SDS011;18952;52.516;13.460;2023-11-19T02:03:43;8.15;;;7.30;;
32501;SDS011;18952;52.516;13.460;2023-11-19T02:06:10;7.70;;;6.93;;
32501;SDS011;18952;52.516;13.460;2023-11-19T02:08:37;8.43;;;7.20;;
32501;SDS011;18952;52.516;13.460;2023-11-19T02:11:04;9.00;;;7.75;;
32501;SDS011;18952;52.516;13.460;2023-11-19T02:13:31;13.85;;;7.70;;
32501;SDS011;18952;52.516;13.460;2023-11-19T02:15:58;9.15;;;7.43;;
32501;SDS011;18952;52.516;13.460;2023-11-19T02:18:26;8.60;;;7.75;;
32501;SDS011;18952;52.516;13.460;2023-11-19T02:20:54;9.63;;;7.63;;
32501;SDS011;18952;52.516;13.460;2023-11-19T02:23:21;11.70;;;8.05;;
32501;SDS011;18952;52.516;13.460;2023-11-19T02:28:31;11.20;;;7.55;;
32501;SDS011;18952;52.516;13.460;2023-11-19T02:31:01;9.68;;;6.90;;
32501;SDS011;18952;52.516;13.460;2023-11-19T02:33:28;7.78;;;7.03;;
32501;SDS011;18952;52.516;13.460;2023-11-19T02:35:55;9.43;;;7.13;;
32501;SDS011;18952;52.516;13.460;2023-11-19T02:38:22;8.05;;;7.25;;
32501;SDS011;18952;52.516;13.460;2023-11-19T02:40:48;9.48;;;7.38;;
32501;SDS011;18952;52.516;13.460;2023-11-19T02:43:15;9.07;;;7.30;;
32501;SDS011;18952;52.516;13.460;2023-11-19T02:45:42;9.38;;;6.70;;
32501;SDS011;18952;52.516;13.460;2023-11-19T02:48:09;8.55;;;7.53;;
32501;SDS011;18952;52.516;13.460;2023-11-19T02:50:36;11.48;;;7.18;;
32501;SDS011;18952;52.516;13.460;2023-11-19T02:53:03;8.50;;;6.95;;
32501;SDS011;18952;52.516;13.460;2023-11-19T02:55:30;9.10;;;6.32;;
32501;SDS011;18952;52.516;13.460;2023-11-19T02:57:58;8.43;;;6.53;;
32501;SDS011;18952;52.516;13.460;2023-11-19T03:00:25;8.00;;;6.28;;
32501;SDS011;18952;52.516;13.460;2023-11-19T03:02:53;6.57;;;5.90;;
32501;SDS011;18952;52.516;13.460;2023-11-19T03:05:20;6.82;;;5.28;;
32501;SDS011;18952;52.516;13.460;2023-11-19T03:07:46;6.95;;;5.50;;
32501;SDS011;18952;52.516;13.460;2023-11-19T03:10:13;7.07;;;5.65;;
32501;SDS011;18952;52.516;13.460;2023-11-19T03:12:41;8.95;;;5.70;;
32501;SDS011;18952;52.516;13.460;2023-11-19T03:15:08;5.90;;;5.30;;
32501;SDS011;18952;52.516;13.460;2023-11-19T03:17:38;5.60;;;4.95;;
32501;SDS011;18952;52.516;13.460;2023-11-19T03:20:06;5.13;;;4.60;;
32501;SDS011;18952;52.516;13.460;2023-11-19T03:22:34;7.47;;;5.72;;
32501;SDS011;18952;52.516;13.460;2023-11-19T03:25:03;5.93;;;5.32;;
32501;SDS011;18952;52.516;13.460;2023-11-19T03:27:30;11.57;;;5.57;;
32501;SDS011;18952;52.516;13.460;2023-11-19T03:29:56;7.10;;;5.28;;
32501;SDS011;18952;52.516;13.460;2023-11-19T03:32:23;5.82;;;5.22;;
32501;SDS011;18952;52.516;13.460;2023-11-19T03:34:50;8.73;;;5.53;;
32501;SDS011;18952;52.516;13.460;2023-11-19T03:37:17;6.50;;;5.80;;
32501;SDS011;18952;52.516;13.460;2023-11-19T03:39:44;8.40;;;6.00;;
32501;SDS011;18952;52.516;13.460;2023-11-19T03:42:11;7.07;;;6.35;;
32501;SDS011;18952;52.516;13.460;2023-11-19T03:44:37;7.40;;;6.63;;
32501;SDS011;18952;52.516;13.460;2023-11-19T03:47:04;8.82;;;6.53;;
32501;SDS011;18952;52.516;13.460;2023-11-19T03:49:31;9.60;;;7.05;;
32501;SDS011;18952;52.516;13.460;2023-11-19T03:51:58;8.23;;;7.43;;
32501;SDS011;18952;52.516;13.460;2023-11-19T03:54:25;10.00;;;8.10;;
32501;SDS011;18952;52.516;13.460;2023-11-19T03:56:52;10.98;;;8.15;;
32501;SDS011;18952;52.516;13.460;2023-11-19T03:59:18;9.00;;;8.10;;
32501;SDS011;18952;52.516;13.460;2023-11-19T04:01:45;9.82;;;8.50;;
32501;SDS011;18952;52.516;13.460;2023-11-19T04:04:12;14.52;;;9.05;;
32501;SDS011;18952;52.516;13.460;2023-11-19T04:06:39;14.48;;;8.82;;
32501;SDS011;18952;52.516;13.460;2023-11-19T04:09:06;9.57;;;8.65;;
32501;SDS011;18952;52.516;13.460;2023-11-19T04:11:33;16.58;;;9.15;;
32501;SDS011;18952;52.516;13.460;2023-11-19T04:14:02;11.45;;;9.38;;
32501;SDS011;18952;52.516;13.460;2023-11-19T04:16:29;12.43;;;9.70;;
32501;SDS011;18952;52.516;13.460;2023-11-19T04:18:55;11.55;;;10.00;;
32501;SDS011;18952;52.516;13.460;2023-11-19T04:21:23;11.68;;;10.48;;
32501;SDS011;18952;52.516;13.460;2023-11-19T04:23:49;11.05;;;9.95;;
32501;SDS011;18952;52.516;13.460;2023-11-19T04:26:16;10.85;;;9.77;;
32501;SDS011;18952;52.516;13.460;2023-11-19T04:28:43;10.27;;;9.27;;
32501;SDS011;18952;52.516;13.460;2023-11-19T04:31:10;12.02;;;10.75;;
32501;SDS011;18952;52.516;13.460;2023-11-19T04:33:37;12.38;;;10.30;;
32501;SDS011;18952;52.516;13.460;2023-11-19T04:36:04;11.75;;;10.57;;
32501;SDS011;18952;52.516;13.460;2023-11-19T04:38:31;11.98;;;10.65;;
32501;SDS011;18952;52.516;13.460;2023-11-19T04:40:58;11.85;;;10.65;;
32501;SDS011;18952;52.516;13.460;2023-11-19T04:43:24;11.93;;;10.32;;
32501;SDS011;18952;52.516;13.460;2023-11-19T04:45:51;11.75;;;10.55;;
32501;SDS011;18952;52.516;13.460;2023-11-19T04:48:18;13.48;;;12.05;;
32501;SDS011;18952;52.516;13.460;2023-11-19T04:50:45;11.88;;;10.48;;
32501;SDS011;18952;52.516;13.460;2023-11-19T04:53:12;12.27;;;11.13;;
32501;SDS011;18952;52.516;13.460;2023-11-19T04:55:39;13.07;;;11.40;;
32501;SDS011;18952;52.516;13.460;2023-11-19T04:58:06;15.60;;;13.15;;
32501;SDS011;18952;52.516;13.460;2023-11-19T05:00:33;15.50;;;13.70;;
32501;SDS011;18952;52.516;13.460;2023-11-19T05:02:59;15.50;;;13.82;;
32501;SDS011;18952;52.516;13.460;2023-11-19T05:05:26;16.63;;;14.18;;
32501;SDS011;18952;52.516;13.460;2023-11-19T05:07:53;16.42;;;14.48;;
32501;SDS011;18952;52.516;13.460;2023-11-19T05:10:20;20.65;;;14.95;;
32501;SDS011;18952;52.516;13.460;2023-11-19T05:12:47;18.20;;;14.38;;
32501;SDS011;18952;52.516;13.460;2023-11-19T05:15:14;17.40;;;15.40;;
32501;SDS011;18952;52.516;13.460;2023-11-19T05:17:41;19.90;;;15.40;;
32501;SDS011;18952;52.516;13.460;2023-11-19T05:20:08;19.10;;;16.65;;
32501;SDS011;18952;52.516;13.460;2023-11-19T05:22:35;17.05;;;15.27;;
32501;SDS011;18952;52.516;13.460;2023-11-19T05:25:02;17.65;;;15.85;;
32501;SDS011;18952;52.516;13.460;2023-11-19T05:27:29;18.10;;;16.23;;
32501;SDS011;18952;52.516;13.460;2023-11-19T05:29:56;19.90;;;16.88;;
32501;SDS011;18952;52.516;13.460;2023-11-19T05:32:23;18.02;;;15.95;;
32501;SDS011;18952;52.516;13.460;2023-11-19T05:34:50;18.13;;;16.27;;
32501;SDS011;18952;52.516;13.460;2023-11-19T05:37:18;18.80;;;16.73;;
32501;SDS011;18952;52.516;13.460;2023-11-19T05:39:45;19.73;;;17.70;;
32501;SDS011;18952;52.516;13.460;2023-11-19T05:42:12;19.65;;;17.40;;
32501;SDS011;18952;52.516;13.460;2023-11-19T05:44:39;19.80;;;16.63;;
32501;SDS011;18952;52.516;13.460;2023-11-19T05:47:07;19.83;;;16.42;;
32501;SDS011;18952;52.516;13.460;2023-11-19T05:49:34;20.48;;;16.90;;
32501;SDS011;18952;52.516;13.460;2023-11-19T05:52:01;17.65;;;15.85;;
32501;SDS011;18952;52.516;13.460;2023-11-19T05:54:27;18.08;;;16.27;;
32501;SDS011;18952;52.516;13.460;2023-11-19T05:56:57;18.13;;;16.27;;
32501;SDS011;18952;52.516;13.460;2023-11-19T05:59:23;23.75;;;16.20;;
32501;SDS011;18952;52.516;13.460;2023-11-19T06:01:50;18.13;;;16.30;;
32501;SDS011;18952;52.516;13.460;2023-11-19T06:04:17;17.80;;;15.90;;
32501;SDS011;18952;52.516;13.460;2023-11-19T06:06:44;18.70;;;16.50;;
32501;SDS011;18952;52.516;13.460;2023-11-19T06:09:11;17.45;;;15.55;;
32501;SDS011;18952;52.516;13.460;2023-11-19T06:11:39;18.08;;;16.17;;
32501;SDS011;18952;52.516;13.460;2023-11-19T06:14:06;16.55;;;14.95;;
32501;SDS011;18952;52.516;13.460;2023-11-19T06:16:34;19.45;;;15.90;;
32501;SDS011;18952;52.516;13.460;2023-11-19T06:19:00;17.30;;;15.43;;
32501;SDS011;18952;52.516;13.460;2023-11-19T06:21:28;16.85;;;15.05;;
32501;SDS011;18952;52.516;13.460;2023-11-19T06:23:54;15.73;;;14.20;;
32501;SDS011;18952;52.516;13.460;2023-11-19T06:26:21;16.35;;;14.65;;
32501;SDS011;18952;52.516;13.460;2023-11-19T06:28:48;17.30;;;15.25;;
32501;SDS011;18952;52.516;13.460;2023-11-19T06:31:15;20.63;;;14.57;;
32501;SDS011;18952;52.516;13.460;2023-11-19T06:33:42;15.00;;;13.50;;
32501;SDS011;18952;52.516;13.460;2023-11-19T06:36:09;15.45;;;13.93;;
32501;SDS011;18952;52.516;13.460;2023-11-19T06:38:36;15.48;;;13.77;;
32501;SDS011;18952;52.516;13.460;2023-11-19T06:41:07;16.30;;;14.60;;
32501;SDS011;18952;52.516;13.460;2023-11-19T06:43:34;17.85;;;14.45;;
32501;SDS011;18952;52.516;13.460;2023-11-19T06:46:05;14.65;;;13.25;;
32501;SDS011;18952;52.516;13.460;2023-11-19T06:48:40;19.58;;;13.98;;
32501;SDS011;18952;52.516;13.460;2023-11-19T06:51:07;14.05;;;12.75;;
32501;SDS011;18952;52.516;13.460;2023-11-19T06:53:33;18.70;;;13.27;;
32501;SDS011;18952;52.516;13.460;2023-11-19T06:56:00;15.05;;;13.55;;
32501;SDS011;18952;52.516;13.460;2023-11-19T06:58:27;15.00;;;13.40;;
32501;SDS011;18952;52.516;13.460;2023-11-19T07:00:54;16.38;;;13.90;;
32501;SDS011;18952;52.516;13.460;2023-11-19T07:03:21;15.05;;;13.48;;
32501;SDS011;18952;52.516;13.460;2023-11-19T07:05:48;14.70;;;12.88;;
32501;SDS011;18952;52.516;13.460;2023-11-19T07:08:15;13.07;;;11.68;;
32501;SDS011;18952;52.516;13.460;2023-11-19T07:10:42;14.93;;;13.40;;
32501;SDS011;18952;52.516;13.460;2023-11-19T07:13:09;15.13;;;13.60;;
32501;SDS011;18952;52.516;13.460;2023-11-19T07:15:35;14.07;;;12.68;;
32501;SDS011;18952;52.516;13.460;2023-11-19T07:18:03;14.10;;;12.70;;
32501;SDS011;18952;52.516;13.460;2023-11-19T07:20:30;14.43;;;13.02;;
32501;SDS011;18952;52.516;13.460;2023-11-19T07:22:57;12.98;;;11.73;;
32501;SDS011;18952;52.516;13.460;2023-11-19T07:25:24;14.02;;;12.63;;
32501;SDS011;18952;52.516;13.460;2023-11-19T07:27:51;12.52;;;11.32;;
32501;SDS011;18952;52.516;13.460;2023-11-19T07:30:19;12.43;;;11.23;;
32501;SDS011;18952;52.516;13.460;2023-11-19T07:32:46;11.73;;;10.60;;
32501;SDS011;18952;52.516;13.460;2023-11-19T07:35:12;12.48;;;11.27;;
32501;SDS011;18952;52.516;13.460;2023-11-19T07:37:39;13.35;;;12.02;;
32501;SDS011;18952;52.516;13.460;2023-11-19T07:40:06;13.63;;;12.23;;
32501;SDS011;18952;52.516;13.460;2023-11-19T07:42:34;11.63;;;10.50;;
32501;SDS011;18952;52.516;13.460;2023-11-19T07:45:01;13.02;;;11.63;;
32501;SDS011;18952;52.516;13.460;2023-11-19T07:47:28;14.90;;;13.40;;
32501;SDS011;18952;52.516;13.460;2023-11-19T07:49:55;13.55;;;12.15;;
32501;SDS011;18952;52.516;13.460;2023-11-19T07:52:23;15.18;;;12.52;;
32501;SDS011;18952;52.516;13.460;2023-11-19T07:54:50;16.13;;;14.43;;
32501;SDS011;18952;52.516;13.460;2023-11-19T07:57:17;14.95;;;13.45;;
32501;SDS011;18952;52.516;13.460;2023-11-19T07:59:44;14.65;;;13.25;;
32501;SDS011;18952;52.516;13.460;2023-11-19T08:02:10;13.07;;;11.77;;
32501;SDS011;18952;52.516;13.460;2023-11-19T08:04:37;14.05;;;12.57;;
32501;SDS011;18952;52.516;13.460;2023-11-19T08:07:05;14.45;;;12.95;;
32501;SDS011;18952;52.516;13.460;2023-11-19T08:09:31;14.02;;;12.60;;
32501;SDS011;18952;52.516;13.460;2023-11-19T08:11:58;13.40;;;12.20;;
32501;SDS011;18952;52.516;13.460;2023-11-19T08:14:25;13.77;;;12.48;;
32501;SDS011;18952;52.516;13.460;2023-11-19T08:16:53;15.48;;;12.68;;
32501;SDS011;18952;52.516;13.460;2023-11-19T08:19:20;14.77;;;13.38;;
32501;SDS011;18952;52.516;13.460;2023-11-19T08:21:47;13.52;;;12.13;;
32501;SDS011;18952;52.516;13.460;2023-11-19T08:24:14;15.32;;;13.82;;
32501;SDS011;18952;52.516;13.460;2023-11-19T08:26:41;14.55;;;13.18;;
32501;SDS011;18952;52.516;13.460;2023-11-19T08:29:07;13.23;;;11.93;;
32501;SDS011;18952;52.516;13.460;2023-11-19T08:31:56;14.27;;;12.98;;
32501;SDS011;18952;52.516;13.460;2023-11-19T08:34:58;12.77;;;11.57;;
32501;SDS011;18952;52.516;13.460;2023-11-19T08:37:25;13.50;;;12.10;;
32501;SDS011;18952;52.516;13.460;2023-11-19T08:39:53;15.18;;;13.10;;
32501;SDS011;18952;52.516;13.460;2023-11-19T08:42:20;15.90;;;13.32;;
32501;SDS011;18952;52.516;13.460;2023-11-19T08:44:49;15.05;;;13.55;;
32501;SDS011;18952;52.516;13.460;2023-11-19T08:47:17;13.48;;;12.20;;
32501;SDS011;18952;52.516;13.460;2023-11-19T08:49:44;14.60;;;13.25;;
32501;SDS011;18952;52.516;13.460;2023-11-19T08:52:11;14.27;;;12.73;;
32501;SDS011;18952;52.516;13.460;2023-11-19T08:54:37;16.33;;;13.07;;
32501;SDS011;18952;52.516;13.460;2023-11-19T08:57:08;13.77;;;11.60;;
32501;SDS011;18952;52.516;13.460;2023-11-19T08:59:35;13.77;;;12.40;;
32501;SDS011;18952;52.516;13.460;2023-11-19T09:02:03;14.82;;;12.50;;
32501;SDS011;18952;52.516;13.460;2023-11-19T09:04:30;13.05;;;11.85;;
32501;SDS011;18952;52.516;13.460;2023-11-19T09:06:58;14.23;;;12.82;;
32501;SDS011;18952;52.516;13.460;2023-11-19T09:09:25;13.48;;;12.07;;
32501;SDS011;18952;52.516;13.460;2023-11-19T09:11:55;15.88;;;13.32;;
32501;SDS011;18952;52.516;13.460;2023-11-19T09:14:25;14.30;;;12.77;;
32501;SDS011;18952;52.516;13.460;2023-11-19T09:16:53;12.93;;;11.73;;
32501;SDS011;18952;52.516;13.460;2023-11-19T09:19:20;13.45;;;12.07;;
32501;SDS011;18952;52.516;13.460;2023-11-19T09:21:47;15.75;;;13.73;;
32501;SDS011;18952;52.516;13.460;2023-11-19T09:24:14;16.00;;;12.60;;
32501;SDS011;18952;52.516;13.460;2023-11-19T09:26:42;15.90;;;13.88;;
32501;SDS011;18952;52.516;13.460;2023-11-19T09:29:09;15.02;;;13.43;;
32501;SDS011;18952;52.516;13.460;2023-11-19T09:31:37;13.32;;;11.95;;
32501;SDS011;18952;52.516;13.460;2023-11-19T09:34:04;12.57;;;11.35;;
32501;SDS011;18952;52.516;13.460;2023-11-19T09:36:31;15.38;;;11.30;;
32501;SDS011;18952;52.516;13.460;2023-11-19T09:38:58;11.23;;;10.13;;
32501;SDS011;18952;52.516;13.460;2023-11-19T09:41:25;12.40;;;10.38;;
32501;SDS011;18952;52.516;13.460;2023-11-19T09:43:53;12.70;;;10.63;;
32501;SDS011;18952;52.516;13.460;2023-11-19T09:46:20;10.32;;;9.32;;
32501;SDS011;18952;52.516;13.460;2023-11-19T09:48:48;10.15;;;8.25;;
32501;SDS011;18952;52.516;13.460;2023-11-19T09:51:15;7.25;;;6.55;;
32501;SDS011;18952;52.516;13.460;2023-11-19T09:53:42;12.77;;;6.75;;
32501;SDS011;18952;52.516;13.460;2023-11-19T09:56:12;8.25;;;6.97;;
32501;SDS011;18952;52.516;13.460;2023-11-19T09:58:41;8.90;;;7.15;;
32501;SDS011;18952;52.516;13.460;2023-11-19T10:01:08;8.15;;;6.43;;
32501;SDS011;18952;52.516;13.460;2023-11-19T10:03:41;8.25;;;6.45;;
32501;SDS011;18952;52.516;13.460;2023-11-19T10:06:09;15.75;;;8.00;;
32501;SDS011;18952;52.516;13.460;2023-11-19T10:08:37;9.10;;;7.45;;
32501;SDS011;18952;52.516;13.460;2023-11-19T10:11:05;17.05;;;7.88;;
32501;SDS011;18952;52.516;13.460;2023-11-19T10:13:36;12.65;;;7.15;;
32501;SDS011;18952;52.516;13.460;2023-11-19T10:16:04;10.35;;;6.32;;
32501;SDS011;18952;52.516;13.460;2023-11-19T10:18:47;8.70;;;7.18;;
32501;SDS011;18952;52.516;13.460;2023-11-19T10:21:18;14.87;;;7.70;;
32501;SDS011;18952;52.516;13.460;2023-11-19T10:26:19;12.13;;;5.50;;
32501;SDS011;18952;52.516;13.460;2023-11-19T10:28:47;17.98;;;6.00;;
32501;SDS011;18952;52.516;13.460;2023-11-19T10:31:15;8.35;;;5.20;;
32501;SDS011;18952;52.516;13.460;2023-11-19T10:33:47;8.52;;;5.05;;
32501;SDS011;18952;52.516;13.460;2023-11-19T10:36:15;10.13;;;5.07;;
32501;SDS011;18952;52.516;13.460;2023-11-19T10:38:54;11.48;;;5.20;;
32501;SDS011;18952;52.516;13.460;2023-11-19T10:41:28;12.10;;;5.15;;
32501;SDS011;18952;52.516;13.460;2023-11-19T10:44:10;10.23;;;4.47;;
32501;SDS011;18952;52.516;13.460;2023-11-19T10:49:11;13.65;;;4.78;;
32501;SDS011;18952;52.516;13.460;2023-11-19T10:55:06;12.77;;;4.05;;
32501;SDS011;18952;52.516;13.460;2023-11-19T10:58:16;11.07;;;3.75;;
32501;SDS011;18952;52.516;13.460;2023-11-19T11:00:51;9.63;;;3.90;;
32501;SDS011;18952;52.516;13.460;2023-11-19T11:03:24;13.43;;;3.97;;
32501;SDS011;18952;52.516;13.460;2023-11-19T11:05:52;12.13;;;4.22;;
32501;SDS011;18952;52.516;13.460;2023-11-19T11:08:20;13.43;;;4.38;;
32501;SDS011;18952;52.516;13.460;2023-11-19T11:13:26;14.90;;;4.78;;
32501;SDS011;18952;52.516;13.460;2023-11-19T11:15:53;11.73;;;4.70;;
32501;SDS011;18952;52.516;13.460;2023-11-19T11:18:23;19.17;;;4.65;;
32501;SDS011;18952;52.516;13.460;2023-11-19T11:20:52;16.35;;;5.07;;
32501;SDS011;18952;52.516;13.460;2023-11-19T11:29:47;25.02;;;4.72;;
32501;SDS011;18952;52.516;13.460;2023-11-19T11:32:34;15.27;;;4.72;;
32501;SDS011;18952;52.516;13.460;2023-11-19T11:38:00;25.05;;;5.00;;
32501;SDS011;18952;52.516;13.460;2023-11-19T11:40:34;16.25;;;4.55;;
32501;SDS011;18952;52.516;13.460;2023-11-19T11:43:01;15.77;;;4.63;;
32501;SDS011;18952;52.516;13.460;2023-11-19T11:45:36;16.60;;;4.32;;
32501;SDS011;18952;52.516;13.460;2023-11-19T11:48:10;22.85;;;5.88;;
32501;SDS011;18952;52.516;13.460;2023-11-19T11:50:49;16.55;;;4.60;;
32501;SDS011;18952;52.516;13.460;2023-11-19T11:53:20;17.52;;;5.53;;
32501;SDS011;18952;52.516;13.460;2023-11-19T11:58:19;20.02;;;4.45;;
32501;SDS011;18952;52.516;13.460;2023-11-19T12:00:48;20.38;;;5.30;;
32501;SDS011;18952;52.516;13.460;2023-11-19T12:03:16;23.40;;;5.55;;
32501;SDS011;18952;52.516;13.460;2023-11-19T12:05:47;20.48;;;5.22;;
32501;SDS011;18952;52.516;13.460;2023-11-19T12:08:27;26.00;;;5.78;;
32501;SDS011;18952;52.516;13.460;2023-11-19T12:11:17;25.55;;;5.22;;
32501;SDS011;18952;52.516;13.460;2023-11-19T12:13:56;21.63;;;5.63;;
32501;SDS011;18952;52.516;13.460;2023-11-19T12:16:23;29.42;;;6.25;;
32501;SDS011;18952;52.516;13.460;2023-11-19T12:18:50;24.20;;;5.45;;
32501;SDS011;18952;52.516;13.460;2023-11-19T12:21:29;24.10;;;5.60;;
32501;SDS011;18952;52.516;13.460;2023-11-19T12:23:57;20.30;;;6.20;;
32501;SDS011;18952;52.516;13.460;2023-11-19T12:26:35;28.33;;;6.65;;
32501;SDS011;18952;52.516;13.460;2023-11-19T12:29:04;23.67;;;5.30;;
32501;SDS011;18952;52.516;13.460;2023-11-19T12:31:34;24.45;;;6.05;;
32501;SDS011;18952;52.516;13.460;2023-11-19T12:34:04;29.40;;;6.22;;
32501;SDS011;18952;52.516;13.460;2023-11-19T12:36:33;19.00;;;5.70;;
32501;SDS011;18952;52.516;13.460;2023-11-19T12:39:00;27.23;;;5.60;;
32501;SDS011;18952;52.516;13.460;2023-11-19T12:41:27;29.05;;;6.60;;
32501;SDS011;18952;52.516;13.460;2023-11-19T12:43:54;22.08;;;5.60;;
32501;SDS011;18952;52.516;13.460;2023-11-19T12:46:35;23.73;;;6.18;;
32501;SDS011;18952;52.516;13.460;2023-11-19T12:49:02;32.60;;;7.05;;
32501;SDS011;18952;52.516;13.460;2023-11-19T12:51:32;29.80;;;6.43;;
32501;SDS011;18952;52.516;13.460;2023-11-19T12:54:03;29.27;;;6.22;;
32501;SDS011;18952;52.516;13.460;2023-11-19T12:56:30;21.38;;;6.50;;
32501;SDS011;18952;52.516;13.460;2023-11-19T12:59:01;26.50;;;6.97;;
32501;SDS011;18952;52.516;13.460;2023-11-19T13:02:21;22.92;;;5.90;;
32501;SDS011;18952;52.516;13.460;2023-11-19T13:04:58;24.27;;;6.47;;
32501;SDS011;18952;52.516;13.460;2023-11-19T13:07:24;23.90;;;6.07;;
32501;SDS011;18952;52.516;13.460;2023-11-19T13:09:51;26.75;;;6.53;;
32501;SDS011;18952;52.516;13.460;2023-11-19T13:12:28;26.55;;;6.38;;
32501;SDS011;18952;52.516;13.460;2023-11-19T13:14:55;25.88;;;6.78;;
32501;SDS011;18952;52.516;13.460;2023-11-19T13:17:23;25.10;;;6.22;;
32501;SDS011;18952;52.516;13.460;2023-11-19T13:19:50;28.17;;;6.63;;
32501;SDS011;18952;52.516;13.460;2023-11-19T13:22:16;23.45;;;6.13;;
32501;SDS011;18952;52.516;13.460;2023-11-19T13:24:43;28.75;;;6.97;;
32501;SDS011;18952;52.516;13.460;2023-11-19T13:27:10;23.00;;;6.43;;
32501;SDS011;18952;52.516;13.460;2023-11-19T13:29:37;25.92;;;6.90;;
32501;SDS011;18952;52.516;13.460;2023-11-19T13:32:04;34.47;;;6.97;;
32501;SDS011;18952;52.516;13.460;2023-11-19T13:34:34;33.55;;;7.32;;
32501;SDS011;18952;52.516;13.460;2023-11-19T13:37:22;30.23;;;7.10;;
32501;SDS011;18952;52.516;13.460;2023-11-19T13:40:12;26.63;;;6.75;;
32501;SDS011;18952;52.516;13.460;2023-11-19T13:42:42;30.13;;;6.80;;
32501;SDS011;18952;52.516;13.460;2023-11-19T13:45:14;29.00;;;7.60;;
32501;SDS011;18952;52.516;13.460;2023-11-19T13:47:42;25.35;;;6.45;;
32501;SDS011;18952;52.516;13.460;2023-11-19T13:50:14;26.77;;;6.78;;
32501;SDS011;18952;52.516;13.460;2023-11-19T13:52:43;33.55;;;7.43;;
32501;SDS011;18952;52.516;13.460;2023-11-19T13:55:15;25.10;;;7.07;;
32501;SDS011;18952;52.516;13.460;2023-11-19T13:57:42;28.63;;;7.65;;
32501;SDS011;18952;52.516;13.460;2023-11-19T14:00:10;28.60;;;7.57;;
32501;SDS011;18952;52.516;13.460;2023-11-19T14:02:39;31.98;;;7.30;;
32501;SDS011;18952;52.516;13.460;2023-11-19T14:05:16;35.80;;;7.47;;
32501;SDS011;18952;52.516;13.460;2023-11-19T14:08:08;26.48;;;6.85;;
32501;SDS011;18952;52.516;13.460;2023-11-19T14:10:47;36.88;;;8.65;;
32501;SDS011;18952;52.516;13.460;2023-11-19T14:13:14;25.52;;;7.50;;
32501;SDS011;18952;52.516;13.460;2023-11-19T14:15:41;27.33;;;7.28;;
32501;SDS011;18952;52.516;13.460;2023-11-19T14:18:09;33.47;;;8.02;;
32501;SDS011;18952;52.516;13.460;2023-11-19T14:20:36;39.42;;;7.90;;
32501;SDS011;18952;52.516;13.460;2023-11-19T14:23:02;35.22;;;8.10;;
32501;SDS011;18952;52.516;13.460;2023-11-19T14:25:29;38.30;;;8.38;;
32501;SDS011;18952;52.516;13.460;2023-11-19T14:27:56;29.27;;;7.93;;
32501;SDS011;18952;52.516;13.460;2023-11-19T14:30:23;41.90;;;8.23;;
32501;SDS011;18952;52.516;13.460;2023-11-19T14:32:51;32.03;;;8.18;;
32501;SDS011;18952;52.516;13.460;2023-11-19T14:35:18;32.17;;;7.95;;
32501;SDS011;18952;52.516;13.460;2023-11-19T14:37:44;36.33;;;8.32;;
32501;SDS011;18952;52.516;13.460;2023-11-19T14:40:12;24.98;;;7.20;;
32501;SDS011;18952;52.516;13.460;2023-11-19T14:42:41;42.33;;;8.18;;
32501;SDS011;18952;52.516;13.460;2023-11-19T14:45:09;31.15;;;8.52;;
32501;SDS011;18952;52.516;13.460;2023-11-19T14:47:36;31.77;;;8.48;;
32501;SDS011;18952;52.516;13.460;2023-11-19T14:50:03;41.63;;;8.90;;
32501;SDS011;18952;52.516;13.460;2023-11-19T14:52:30;35.00;;;8.77;;